sensor_id;sensor_type;location;lat;lon;timestamp;pressure;altitude;pressure_sealevel;temperature;humidity
55656;BME280;41530;52.382;5.270;2023-10-13T00:00:39;101302.19;;;19.83;65.57
55656;BME280;41530;52.382;5.270;2023-10-13T00:03:07;101301.19;;;19.84;65.64
55656;BME280;41530;52.382;5.270;2023-10-13T00:05:41;101291.50;;;19.83;65.40
55656;BME280;41530;52.382;5.270;2023-10-13T00:08:09;101293.19;;;19.84;65.54
55656;BME280;41530;52.382;5.270;2023-10-13T00:10:35;101291.50;;;19.83;65.46
55656;BME280;41530;52.382;5.270;2023-10-13T00:13:02;101285.97;;;19.84;65.45
55656;BME280;41530;52.382;5.270;2023-10-13T00:15:46;101281.66;;;19.83;65.67
55656;BME280;41530;52.382;5.270;2023-10-13T00:18:24;101273.66;;;19.83;65.35
55656;BME280;41530;52.382;5.270;2023-10-13T00:20:53;101271.81;;;19.84;65.46
55656;BME280;41530;52.382;5.270;2023-10-13T00:23:23;101275.47;;;19.83;65.39
55656;BME280;41530;52.382;5.270;2023-10-13T00:25:49;101270.97;;;19.83;65.31
55656;BME280;41530;52.382;5.270;2023-10-13T00:28:16;101273.66;;;19.83;65.50
55656;BME280;41530;52.382;5.270;2023-10-13T00:30:54;101270.97;;;19.83;65.27
55656;BME280;41530;52.382;5.270;2023-10-13T00:33:27;101268.31;;;19.83;65.26
55656;BME280;41530;52.382;5.270;2023-10-13T00:35:54;101270.97;;;19.83;65.24
55656;BME280;41530;52.382;5.270;2023-10-13T00:38:24;101260.31;;;19.83;65.35
55656;BME280;41530;52.382;5.270;2023-10-13T00:40:50;101256.59;;;19.84;65.34
55656;BME280;41530;52.382;5.270;2023-10-13T00:43:21;101252.28;;;19.83;65.18
55656;BME280;41530;52.382;5.270;2023-10-13T00:45:50;101249.63;;;19.83;65.22
55656;BME280;41530;52.382;5.270;2023-10-13T00:48:34;101245.13;;;19.84;65.25
55656;BME280;41530;52.382;5.270;2023-10-13T00:51:02;101245.94;;;19.84;65.42
55656;BME280;41530;52.382;5.270;2023-10-13T00:53:29;101252.09;;;19.85;65.47
55656;BME280;41530;52.382;5.270;2023-10-13T00:56:03;101246.75;;;19.85;65.40
55656;BME280;41530;52.382;5.270;2023-10-13T00:58:50;101229.91;;;19.84;65.40
55656;BME280;41530;52.382;5.270;2023-10-13T01:01:18;101235.25;;;19.84;65.26
55656;BME280;41530;52.382;5.270;2023-10-13T01:03:45;101228.25;;;19.83;65.56
55656;BME280;41530;52.382;5.270;2023-10-13T01:06:15;101223.75;;;19.84;65.13
55656;BME280;41530;52.382;5.270;2023-10-13T01:08:46;101218.41;;;19.84;65.12
55656;BME280;41530;52.382;5.270;2023-10-13T01:11:18;101211.88;;;19.78;65.37
55656;BME280;41530;52.382;5.270;2023-10-13T01:13:44;101215.75;;;19.84;65.54
55656;BME280;41530;52.382;5.270;2023-10-13T01:16:13;101216.56;;;19.84;65.17
55656;BME280;41530;52.382;5.270;2023-10-13T01:18:41;101213.88;;;19.84;65.26
55656;BME280;41530;52.382;5.270;2023-10-13T01:21:15;101213.88;;;19.84;65.34
55656;BME280;41530;52.382;5.270;2023-10-13T01:23:43;101202.41;;;19.84;65.34
55656;BME280;41530;52.382;5.270;2023-10-13T01:26:11;101204.22;;;19.83;65.26
55656;BME280;41530;52.382;5.270;2023-10-13T01:28:39;101199.72;;;19.84;65.24
55656;BME280;41530;52.382;5.270;2023-10-13T01:31:12;101201.56;;;19.83;65.30
55656;BME280;41530;52.382;5.270;2023-10-13T01:33:56;101186.53;;;19.82;65.27
55656;BME280;41530;52.382;5.270;2023-10-13T01:36:26;101198.91;;;19.83;65.38
55656;BME280;41530;52.382;5.270;2023-10-13T01:38:53;101188.22;;;19.83;65.15
55656;BME280;41530;52.382;5.270;2023-10-13T01:41:22;101179.38;;;19.83;65.22
55656;BME280;41530;52.382;5.270;2023-10-13T01:43:49;101185.53;;;19.83;65.49
55656;BME280;41530;52.382;5.270;2023-10-13T01:46:16;101173.03;;;19.84;65.14
55656;BME280;41530;52.382;5.270;2023-10-13T01:48:46;101173.03;;;19.84;65.55
55656;BME280;41530;52.382;5.270;2023-10-13T01:51:12;101166.84;;;19.83;65.37
55656;BME280;41530;52.382;5.270;2023-10-13T01:53:39;101166.66;;;19.85;65.23
55656;BME280;41530;52.382;5.270;2023-10-13T01:56:07;101169.34;;;19.85;65.39
55656;BME280;41530;52.382;5.270;2023-10-13T01:58:37;101165.84;;;19.84;65.40
55656;BME280;41530;52.382;5.270;2023-10-13T02:01:06;101161.31;;;19.85;65.43
55656;BME280;41530;52.382;5.270;2023-10-13T02:03:33;101157.66;;;19.86;65.59
55656;BME280;41530;52.382;5.270;2023-10-13T02:06:00;101158.66;;;19.85;65.58
55656;BME280;41530;52.382;5.270;2023-10-13T02:08:30;101152.31;;;19.86;65.83
55656;BME280;41530;52.382;5.270;2023-10-13T02:10:57;101144.31;;;19.86;65.38
55656;BME280;41530;52.382;5.270;2023-10-13T02:13:26;101152.31;;;19.86;65.06
55656;BME280;41530;52.382;5.270;2023-10-13T02:15:53;101149.66;;;19.86;65.64
55656;BME280;41530;52.382;5.270;2023-10-13T02:18:23;101146.97;;;19.86;65.51
55656;BME280;41530;52.382;5.270;2023-10-13T02:20:56;101144.31;;;19.86;65.51
55656;BME280;41530;52.382;5.270;2023-10-13T02:23:23;101142.47;;;19.86;65.33
55656;BME280;41530;52.382;5.270;2023-10-13T02:25:56;101137.16;;;19.86;65.84
55656;BME280;41530;52.382;5.270;2023-10-13T02:28:39;101137.16;;;19.86;65.50
55656;BME280;41530;52.382;5.270;2023-10-13T02:31:05;101126.47;;;19.86;65.60
55656;BME280;41530;52.382;5.270;2023-10-13T02:33:33;101123.78;;;19.86;65.24
55656;BME280;41530;52.382;5.270;2023-10-13T02:36:02;101120.28;;;19.86;65.74
55656;BME280;41530;52.382;5.270;2023-10-13T02:38:32;101120.13;;;19.87;65.49
55656;BME280;41530;52.382;5.270;2023-10-13T02:41:14;101112.13;;;19.87;65.48
55656;BME280;41530;52.382;5.270;2023-10-13T02:44:07;101099.75;;;19.86;65.65
55656;BME280;41530;52.382;5.270;2023-10-13T02:46:34;101102.28;;;19.88;65.70
55656;BME280;41530;52.382;5.270;2023-10-13T02:49:06;101100.59;;;19.87;65.35
55656;BME280;41530;52.382;5.270;2023-10-13T02:51:37;101090.75;;;19.87;65.27
55656;BME280;41530;52.382;5.270;2023-10-13T02:54:08;101080.06;;;19.87;65.44
55656;BME280;41530;52.382;5.270;2023-10-13T02:56:38;101076.56;;;19.87;65.45
55656;BME280;41530;52.382;5.270;2023-10-13T02:59:15;101065.88;;;19.87;65.30
55656;BME280;41530;52.382;5.270;2023-10-13T03:01:46;101065.06;;;19.86;65.59
55656;BME280;41530;52.382;5.270;2023-10-13T03:04:13;101060.56;;;19.87;65.78
55656;BME280;41530;52.382;5.270;2023-10-13T03:06:39;101056.03;;;19.87;65.40
55656;BME280;41530;52.382;5.270;2023-10-13T03:09:09;101048.03;;;19.87;65.50
55656;BME280;41530;52.382;5.270;2023-10-13T03:11:45;101044.53;;;19.87;65.75
55656;BME280;41530;52.382;5.270;2023-10-13T03:14:15;101040.03;;;19.87;65.45
55656;BME280;41530;52.382;5.270;2023-10-13T03:16:55;101039.03;;;19.88;65.48
55656;BME280;41530;52.382;5.270;2023-10-13T03:19:21;101021.19;;;19.89;65.20
55656;BME280;41530;52.382;5.270;2023-10-13T03:21:49;101015.00;;;19.88;65.57
55656;BME280;41530;52.382;5.270;2023-10-13T03:24:22;101008.66;;;19.89;65.28
55656;BME280;41530;52.382;5.270;2023-10-13T03:27:03;101003.50;;;19.88;65.18
55656;BME280;41530;52.382;5.270;2023-10-13T03:29:38;100990.13;;;19.88;65.69
55656;BME280;41530;52.382;5.270;2023-10-13T03:32:10;100986.63;;;19.87;65.48
55656;BME280;41530;52.382;5.270;2023-10-13T03:34:39;100970.63;;;19.87;65.69
55656;BME280;41530;52.382;5.270;2023-10-13T03:37:12;100968.63;;;19.89;65.49
55656;BME280;41530;52.382;5.270;2023-10-13T03:39:44;100964.28;;;19.88;65.43
55656;BME280;41530;52.382;5.270;2023-10-13T03:42:11;100968.78;;;19.88;65.74
55656;BME280;41530;52.382;5.270;2023-10-13T03:44:45;100965.78;;;19.83;65.15
55656;BME280;41530;52.382;5.270;2023-10-13T03:47:14;100975.78;;;19.89;65.42
55656;BME280;41530;52.382;5.270;2023-10-13T03:49:53;100973.13;;;19.89;65.49
55656;BME280;41530;52.382;5.270;2023-10-13T03:52:43;100962.44;;;19.89;65.40
55656;BME280;41530;52.382;5.270;2023-10-13T03:55:11;100942.91;;;19.88;65.06
55656;BME280;41530;52.382;5.270;2023-10-13T03:57:44;100932.25;;;19.88;65.58
55656;BME280;41530;52.382;5.270;2023-10-13T04:00:12;100916.22;;;19.88;65.30
55656;BME280;41530;52.382;5.270;2023-10-13T04:02:47;100901.03;;;19.89;65.36
55656;BME280;41530;52.382;5.270;2023-10-13T04:05:20;100900.19;;;19.88;65.17
55656;BME280;41530;52.382;5.270;2023-10-13T04:08:07;100893.03;;;19.89;65.06
55656;BME280;41530;52.382;5.270;2023-10-13T04:10:53;100873.50;;;19.88;65.12
55656;BME280;41530;52.382;5.270;2023-10-13T04:13:20;100883.19;;;19.89;65.47
55656;BME280;41530;52.382;5.270;2023-10-13T04:16:08;100882.50;;;19.87;65.38
55656;BME280;41530;52.382;5.270;2023-10-13T04:19:01;100880.66;;;19.88;65.33
55656;BME280;41530;52.382;5.270;2023-10-13T04:21:28;100870.00;;;19.88;65.37
55656;BME280;41530;52.382;5.270;2023-10-13T04:24:08;100854.97;;;19.87;65.35
55656;BME280;41530;52.382;5.270;2023-10-13T04:26:54;100854.81;;;19.88;65.24
55656;BME280;41530;52.382;5.270;2023-10-13T04:29:39;100848.63;;;19.88;65.49
55656;BME280;41530;52.382;5.270;2023-10-13T04:32:36;100846.81;;;19.88;65.37
55656;BME280;41530;52.382;5.270;2023-10-13T04:35:12;100847.63;;;19.89;65.14
55656;BME280;41530;52.382;5.270;2023-10-13T04:37:39;100849.47;;;19.88;65.15
55656;BME280;41530;52.382;5.270;2023-10-13T04:40:27;100835.28;;;19.88;65.08
55656;BME280;41530;52.382;5.270;2023-10-13T04:43:01;100829.94;;;19.88;65.38
55656;BME280;41530;52.382;5.270;2023-10-13T04:45:44;100836.13;;;19.88;65.08
55656;BME280;41530;52.382;5.270;2023-10-13T04:48:20;100817.44;;;19.88;65.28
55656;BME280;41530;52.382;5.270;2023-10-13T04:50:49;100812.09;;;19.88;65.27
55656;BME280;41530;52.382;5.270;2023-10-13T04:53:42;100812.09;;;19.88;65.03
55656;BME280;41530;52.382;5.270;2023-10-13T04:56:30;100808.59;;;19.88;65.24
55656;BME280;41530;52.382;5.270;2023-10-13T04:59:15;100807.75;;;19.87;65.21
55656;BME280;41530;52.382;5.270;2023-10-13T05:02:01;100798.75;;;19.88;65.30
55656;BME280;41530;52.382;5.270;2023-10-13T05:04:47;100793.41;;;19.88;65.14
55656;BME280;41530;52.382;5.270;2023-10-13T05:07:49;100785.41;;;19.88;65.30
55656;BME280;41530;52.382;5.270;2023-10-13T05:10:34;100767.72;;;19.87;65.15
55656;BME280;41530;52.382;5.270;2023-10-13T05:13:20;100768.53;;;19.88;65.33
55656;BME280;41530;52.382;5.270;2023-10-13T05:16:05;100765.19;;;19.86;65.21
55656;BME280;41530;52.382;5.270;2023-10-13T05:18:50;100763.53;;;19.85;65.35
55656;BME280;41530;52.382;5.270;2023-10-13T05:21:35;100762.53;;;19.86;65.23
55656;BME280;41530;52.382;5.270;2023-10-13T05:24:23;100758.03;;;19.86;65.41
55656;BME280;41530;52.382;5.270;2023-10-13T05:27:08;100760.88;;;19.85;65.32
55656;BME280;41530;52.382;5.270;2023-10-13T05:29:53;100755.53;;;19.85;65.30
55656;BME280;41530;52.382;5.270;2023-10-13T05:32:39;100754.69;;;19.84;65.30
55656;BME280;41530;52.382;5.270;2023-10-13T05:35:24;100747.53;;;19.85;65.47
55656;BME280;41530;52.382;5.270;2023-10-13T05:38:09;100749.34;;;19.84;65.30
55656;BME280;41530;52.382;5.270;2023-10-13T05:41:01;100766.19;;;19.85;65.49
55656;BME280;41530;52.382;5.270;2023-10-13T05:43:50;100764.56;;;19.84;65.53
55656;BME280;41530;52.382;5.270;2023-10-13T05:46:36;100749.34;;;19.84;65.62
55656;BME280;41530;52.382;5.270;2023-10-13T05:49:04;100758.38;;;19.83;65.71
55656;BME280;41530;52.382;5.270;2023-10-13T05:51:43;100748.56;;;19.84;65.35
55656;BME280;41530;52.382;5.270;2023-10-13T05:54:13;100765.19;;;19.86;65.33
55656;BME280;41530;52.382;5.270;2023-10-13T05:56:41;100766.03;;;19.86;65.48
55656;BME280;41530;52.382;5.270;2023-10-13T05:59:31;100757.19;;;19.86;65.35
55656;BME280;41530;52.382;5.270;2023-10-13T06:02:16;100750.03;;;19.86;65.74
55656;BME280;41530;52.382;5.270;2023-10-13T06:05:20;100734.84;;;19.87;65.82
55656;BME280;41530;52.382;5.270;2023-10-13T06:08:05;100730.34;;;19.87;65.78
55656;BME280;41530;52.382;5.270;2023-10-13T06:10:50;100728.50;;;19.88;65.68
55656;BME280;41530;52.382;5.270;2023-10-13T06:13:45;100718.66;;;19.88;65.90
55656;BME280;41530;52.382;5.270;2023-10-13T06:16:30;100722.16;;;19.89;65.77
55656;BME280;41530;52.382;5.270;2023-10-13T06:19:16;100720.31;;;19.89;65.85
55656;BME280;41530;52.382;5.270;2023-10-13T06:22:01;100717.66;;;19.89;66.00
55656;BME280;41530;52.382;5.270;2023-10-13T06:24:46;100715.81;;;19.90;65.76
55656;BME280;41530;52.382;5.270;2023-10-13T06:27:31;100721.00;;;19.91;65.80
55656;BME280;41530;52.382;5.270;2023-10-13T06:30:16;100721.00;;;19.91;65.95
55656;BME280;41530;52.382;5.270;2023-10-13T06:32:43;100719.16;;;19.92;65.77
55656;BME280;41530;52.382;5.270;2023-10-13T06:35:13;100711.97;;;19.92;65.93
55656;BME280;41530;52.382;5.270;2023-10-13T06:37:50;100707.63;;;19.91;65.76
55656;BME280;41530;52.382;5.270;2023-10-13T06:40:17;100714.66;;;19.92;65.70
55656;BME280;41530;52.382;5.270;2023-10-13T06:42:53;100715.47;;;19.93;65.63
55656;BME280;41530;52.382;5.270;2023-10-13T06:45:21;100716.31;;;19.93;65.66
55656;BME280;41530;52.382;5.270;2023-10-13T06:47:48;100705.63;;;19.93;65.54
55656;BME280;41530;52.382;5.270;2023-10-13T06:50:19;100703.81;;;19.94;65.57
55656;BME280;41530;52.382;5.270;2023-10-13T06:52:50;100700.13;;;19.95;65.47
55656;BME280;41530;52.382;5.270;2023-10-13T06:55:21;100695.78;;;19.94;65.29
55656;BME280;41530;52.382;5.270;2023-10-13T06:57:54;100683.28;;;19.95;65.37
55656;BME280;41530;52.382;5.270;2023-10-13T07:00:26;100688.63;;;19.95;65.74
55656;BME280;41530;52.382;5.270;2023-10-13T07:03:01;100692.13;;;19.95;65.38
55656;BME280;41530;52.382;5.270;2023-10-13T07:05:44;100682.28;;;19.96;65.28
55656;BME280;41530;52.382;5.270;2023-10-13T07:08:14;100676.94;;;19.96;65.38
55656;BME280;41530;52.382;5.270;2023-10-13T07:10:47;100677.78;;;19.96;65.21
55656;BME280;41530;52.382;5.270;2023-10-13T07:13:40;100675.94;;;19.97;65.42
55656;BME280;41530;52.382;5.270;2023-10-13T07:16:13;100671.44;;;19.97;65.25
55656;BME280;41530;52.382;5.270;2023-10-13T07:18:55;100666.88;;;19.98;65.09
55656;BME280;41530;52.382;5.270;2023-10-13T07:21:22;100665.06;;;19.98;65.01
55656;BME280;41530;52.382;5.270;2023-10-13T07:23:57;100655.22;;;19.99;65.08
55656;BME280;41530;52.382;5.270;2023-10-13T07:26:37;100644.53;;;19.99;65.29
55656;BME280;41530;52.382;5.270;2023-10-13T07:29:12;100635.50;;;20.00;65.20
55656;BME280;41530;52.382;5.270;2023-10-13T07:31:41;100625.53;;;19.93;64.95
55656;BME280;41530;52.382;5.270;2023-10-13T07:34:12;100649.88;;;19.99;65.23
55656;BME280;41530;52.382;5.270;2023-10-13T07:36:53;100653.19;;;20.01;65.04
55656;BME280;41530;52.382;5.270;2023-10-13T07:39:21;100641.69;;;20.00;65.12
55656;BME280;41530;52.382;5.270;2023-10-13T07:41:50;100639.84;;;20.01;64.87
55656;BME280;41530;52.382;5.270;2023-10-13T07:44:30;100633.50;;;20.02;65.17
55656;BME280;41530;52.382;5.270;2023-10-13T07:47:01;100622.81;;;20.02;65.02
55656;BME280;41530;52.382;5.270;2023-10-13T07:49:32;100611.97;;;20.03;64.95
55656;BME280;41530;52.382;5.270;2023-10-13T07:51:59;100620.81;;;20.04;65.17
55656;BME280;41530;52.382;5.270;2023-10-13T07:54:27;100618.97;;;20.04;65.20
55656;BME280;41530;52.382;5.270;2023-10-13T07:56:54;100620.81;;;20.04;65.08
55656;BME280;41530;52.382;5.270;2023-10-13T07:59:21;100622.50;;;20.05;64.86
55656;BME280;41530;52.382;5.270;2023-10-13T08:01:50;100614.66;;;20.03;65.02
55656;BME280;41530;52.382;5.270;2023-10-13T08:04:37;100598.13;;;20.00;64.92
55656;BME280;41530;52.382;5.270;2023-10-13T08:07:03;100596.63;;;20.05;65.14
55656;BME280;41530;52.382;5.270;2023-10-13T08:09:40;100593.94;;;20.05;65.24
55656;BME280;41530;52.382;5.270;2023-10-13T08:12:07;100598.13;;;20.08;65.14
55656;BME280;41530;52.382;5.270;2023-10-13T08:14:38;100589.28;;;20.07;65.41
55656;BME280;41530;52.382;5.270;2023-10-13T08:17:08;100589.94;;;20.09;65.67
55656;BME280;41530;52.382;5.270;2023-10-13T08:19:38;100586.44;;;20.09;65.34
55656;BME280;41530;52.382;5.270;2023-10-13T08:22:14;100597.75;;;20.11;65.80
55656;BME280;41530;52.382;5.270;2023-10-13T08:24:47;100585.22;;;20.11;65.74
55656;BME280;41530;52.382;5.270;2023-10-13T08:27:15;100578.03;;;20.12;65.89
55656;BME280;41530;52.382;5.270;2023-10-13T08:29:42;100572.69;;;20.12;65.80
55656;BME280;41530;52.382;5.270;2023-10-13T08:32:35;100579.72;;;20.13;66.31
55656;BME280;41530;52.382;5.270;2023-10-13T08:35:31;100575.03;;;20.15;66.31
55656;BME280;41530;52.382;5.270;2023-10-13T08:38:01;100572.34;;;20.15;66.07
55656;BME280;41530;52.382;5.270;2023-10-13T08:40:51;100576.69;;;20.16;65.86
55656;BME280;41530;52.382;5.270;2023-10-13T08:43:43;100586.38;;;20.17;66.39
55656;BME280;41530;52.382;5.270;2023-10-13T08:46:13;100567.69;;;20.17;66.20
55656;BME280;41530;52.382;5.270;2023-10-13T08:48:57;100558.66;;;20.18;65.87
55656;BME280;41530;52.382;5.270;2023-10-13T08:51:42;100547.97;;;20.18;66.02
55656;BME280;41530;52.382;5.270;2023-10-13T08:54:16;100545.31;;;20.18;65.97
55656;BME280;41530;52.382;5.270;2023-10-13T08:56:47;100546.13;;;20.18;66.05
55656;BME280;41530;52.382;5.270;2023-10-13T08:59:21;100546.97;;;20.19;66.16
55656;BME280;41530;52.382;5.270;2023-10-13T09:02:11;100538.13;;;20.18;65.85
55656;BME280;41530;52.382;5.270;2023-10-13T09:04:45;100537.13;;;20.19;66.02
55656;BME280;41530;52.382;5.270;2023-10-13T09:07:12;100536.13;;;20.20;66.19
55656;BME280;41530;52.382;5.270;2023-10-13T09:09:51;100534.44;;;20.19;66.06
55656;BME280;41530;52.382;5.270;2023-10-13T09:14:53;100526.25;;;20.21;66.03
55656;BME280;41530;52.382;5.270;2023-10-13T09:17:31;100524.59;;;20.20;66.25
55656;BME280;41530;52.382;5.270;2023-10-13T09:22:47;100513.75;;;20.21;66.19
55656;BME280;41530;52.382;5.270;2023-10-13T09:28:14;100507.41;;;20.22;66.14
55656;BME280;41530;52.382;5.270;2023-10-13T09:33:10;100516.25;;;20.23;66.08
55656;BME280;41530;52.382;5.270;2023-10-13T09:35:44;100504.50;;;20.24;66.24
55656;BME280;41530;52.382;5.270;2023-10-13T09:38:17;100503.50;;;20.25;66.30
55656;BME280;41530;52.382;5.270;2023-10-13T09:40:44;100502.50;;;20.26;65.99
55656;BME280;41530;52.382;5.270;2023-10-13T09:43:17;100475.78;;;20.26;66.26
55656;BME280;41530;52.382;5.270;2023-10-13T09:45:49;100476.63;;;20.26;66.22
55656;BME280;41530;52.382;5.270;2023-10-13T09:48:44;100479.13;;;20.28;66.04
55656;BME280;41530;52.382;5.270;2023-10-13T09:51:14;100467.44;;;20.29;66.10
55656;BME280;41530;52.382;5.270;2023-10-13T09:53:42;100472.78;;;20.29;66.14
55656;BME280;41530;52.382;5.270;2023-10-13T09:56:42;100466.41;;;20.30;65.91
55656;BME280;41530;52.382;5.270;2023-10-13T09:59:21;100457.41;;;20.31;66.02
55656;BME280;41530;52.382;5.270;2023-10-13T10:01:49;100451.88;;;20.33;66.01
55656;BME280;41530;52.382;5.270;2023-10-13T10:04:18;100435.03;;;20.32;65.71
55656;BME280;41530;52.382;5.270;2023-10-13T10:09:19;100434.84;;;20.34;65.72
55656;BME280;41530;52.382;5.270;2023-10-13T10:17:06;100446.03;;;20.37;65.56
55656;BME280;41530;52.382;5.270;2023-10-13T10:19:49;100448.50;;;20.39;65.60
55656;BME280;41530;52.382;5.270;2023-10-13T10:24:57;100439.78;;;20.45;65.52
55656;BME280;41530;52.382;5.270;2023-10-13T10:27:29;100433.25;;;20.47;65.43
55656;BME280;41530;52.382;5.270;2023-10-13T10:29:56;100434.34;;;20.53;65.60
55656;BME280;41530;52.382;5.270;2023-10-13T10:32:33;100422.78;;;20.60;65.37
55656;BME280;41530;52.382;5.270;2023-10-13T10:35:02;100419.75;;;20.63;65.37
55656;BME280;41530;52.382;5.270;2023-10-13T10:37:33;100414.00;;;20.67;65.22
55656;BME280;41530;52.382;5.270;2023-10-13T10:40:01;100416.16;;;20.71;65.25
55656;BME280;41530;52.382;5.270;2023-10-13T10:42:32;100417.72;;;20.80;64.80
55656;BME280;41530;52.382;5.270;2023-10-13T10:44:58;100411.81;;;20.85;64.83
55656;BME280;41530;52.382;5.270;2023-10-13T10:47:31;100412.13;;;20.90;64.89
55656;BME280;41530;52.382;5.270;2023-10-13T10:49:59;100404.16;;;20.96;64.69
55656;BME280;41530;52.382;5.270;2023-10-13T10:52:33;100401.78;;;21.02;64.68
55656;BME280;41530;52.382;5.270;2023-10-13T10:55:03;100410.06;;;21.07;64.63
55656;BME280;41530;52.382;5.270;2023-10-13T10:57:33;100394.84;;;21.07;64.54
55656;BME280;41530;52.382;5.270;2023-10-13T11:00:04;100386.81;;;21.07;64.62
55656;BME280;41530;52.382;5.270;2023-10-13T11:02:41;100388.47;;;21.08;64.67
55656;BME280;41530;52.382;5.270;2023-10-13T11:05:07;100377.13;;;21.06;64.66
55656;BME280;41530;52.382;5.270;2023-10-13T11:07:36;100381.47;;;21.07;64.65
55656;BME280;41530;52.382;5.270;2023-10-13T11:10:09;100376.31;;;21.06;64.15
55656;BME280;41530;52.382;5.270;2023-10-13T11:12:55;100372.78;;;21.05;64.15
55656;BME280;41530;52.382;5.270;2023-10-13T11:15:21;100371.97;;;21.05;64.41
55656;BME280;41530;52.382;5.270;2023-10-13T11:17:49;100384.50;;;21.04;64.32
55656;BME280;41530;52.382;5.270;2023-10-13T11:20:22;100355.31;;;21.03;64.34
55656;BME280;41530;52.382;5.270;2023-10-13T11:23:00;100344.38;;;21.04;64.27
55656;BME280;41530;52.382;5.270;2023-10-13T11:25:27;100356.13;;;21.03;63.90
55656;BME280;41530;52.382;5.270;2023-10-13T11:27:57;100337.41;;;21.03;64.01
55656;BME280;41530;52.382;5.270;2023-10-13T11:30:26;100349.13;;;21.02;63.71
55656;BME280;41530;52.382;5.270;2023-10-13T11:33:00;100341.09;;;21.02;63.79
55656;BME280;41530;52.382;5.270;2023-10-13T11:35:29;100340.28;;;21.02;63.79
55656;BME280;41530;52.382;5.270;2023-10-13T11:38:15;100332.25;;;21.02;63.67
55656;BME280;41530;52.382;5.270;2023-10-13T11:40:42;100334.09;;;21.01;63.51
55656;BME280;41530;52.382;5.270;2023-10-13T11:43:26;100338.59;;;21.01;63.87
55656;BME280;41530;52.382;5.270;2023-10-13T11:45:53;100331.41;;;21.01;63.55
55656;BME280;41530;52.382;5.270;2023-10-13T11:48:35;100320.91;;;20.99;63.60
55656;BME280;41530;52.382;5.270;2023-10-13T11:51:05;100332.44;;;21.00;63.59
55656;BME280;41530;52.382;5.270;2023-10-13T11:53:35;100326.25;;;20.99;63.45
55656;BME280;41530;52.382;5.270;2023-10-13T11:56:02;100334.28;;;20.99;63.19
55656;BME280;41530;52.382;5.270;2023-10-13T11:58:39;100325.44;;;20.99;63.37
55656;BME280;41530;52.382;5.270;2023-10-13T12:01:06;100330.78;;;20.99;63.21
55656;BME280;41530;52.382;5.270;2023-10-13T12:03:41;100333.44;;;20.99;63.01
55656;BME280;41530;52.382;5.270;2023-10-13T12:06:28;100314.72;;;20.99;62.79
55656;BME280;41530;52.382;5.270;2023-10-13T12:09:01;100330.78;;;20.99;62.76
55656;BME280;41530;52.382;5.270;2023-10-13T12:11:45;100322.75;;;20.99;62.60
55656;BME280;41530;52.382;5.270;2023-10-13T12:14:12;100333.44;;;20.99;62.31
55656;BME280;41530;52.382;5.270;2023-10-13T12:16:54;100328.09;;;20.99;62.23
55656;BME280;41530;52.382;5.270;2023-10-13T12:19:23;100331.78;;;20.98;62.13
55656;BME280;41530;52.382;5.270;2023-10-13T12:21:50;100326.25;;;20.99;61.87
55656;BME280;41530;52.382;5.270;2023-10-13T12:24:21;100316.56;;;20.98;61.89
55656;BME280;41530;52.382;5.270;2023-10-13T12:27:08;100317.41;;;20.99;61.77
55656;BME280;41530;52.382;5.270;2023-10-13T12:29:47;100320.91;;;20.99;61.94
55656;BME280;41530;52.382;5.270;2023-10-13T12:32:13;100306.72;;;20.99;62.19
55656;BME280;41530;52.382;5.270;2023-10-13T12:34:41;100311.88;;;21.01;62.08
55656;BME280;41530;52.382;5.270;2023-10-13T12:37:27;100308.38;;;21.00;62.08
55656;BME280;41530;52.382;5.270;2023-10-13T12:42:48;100313.72;;;21.00;62.10
55656;BME280;41530;52.382;5.270;2023-10-13T12:45:33;100313.72;;;21.00;61.95
55656;BME280;41530;52.382;5.270;2023-10-13T12:48:22;100306.72;;;20.99;61.90
55656;BME280;41530;52.382;5.270;2023-10-13T12:51:07;100306.53;;;21.01;61.82
55656;BME280;41530;52.382;5.270;2023-10-13T12:53:52;100314.53;;;21.01;61.93
55656;BME280;41530;52.382;5.270;2023-10-13T12:56:19;100289.66;;;21.00;61.91
55656;BME280;41530;52.382;5.270;2023-10-13T12:58:52;100303.84;;;21.01;61.99
55656;BME280;41530;52.382;5.270;2023-10-13T13:01:19;100311.03;;;21.00;62.30
55656;BME280;41530;52.382;5.270;2023-10-13T13:03:48;100324.41;;;21.00;62.29
55656;BME280;41530;52.382;5.270;2023-10-13T13:06:20;100311.03;;;21.00;62.30
55656;BME280;41530;52.382;5.270;2023-10-13T13:08:56;100321.75;;;21.00;62.33
55656;BME280;41530;52.382;5.270;2023-10-13T13:11:23;100327.09;;;21.00;62.29
55656;BME280;41530;52.382;5.270;2023-10-13T13:13:52;100328.09;;;20.99;62.55
55656;BME280;41530;52.382;5.270;2023-10-13T13:16:19;100314.72;;;20.99;62.68
55656;BME280;41530;52.382;5.270;2023-10-13T13:18:50;100312.06;;;20.99;62.78
55656;BME280;41530;52.382;5.270;2023-10-13T13:21:17;100285.31;;;20.99;62.60
55656;BME280;41530;52.382;5.270;2023-10-13T13:23:51;100274.63;;;20.99;62.64
55656;BME280;41530;52.382;5.270;2023-10-13T13:26:17;100273.78;;;20.98;62.54
55656;BME280;41530;52.382;5.270;2023-10-13T13:28:45;100296.84;;;20.99;62.79
55656;BME280;41530;52.382;5.270;2023-10-13T13:31:19;100313.72;;;21.00;62.69
55656;BME280;41530;52.382;5.270;2023-10-13T13:33:52;100316.56;;;20.98;63.10
55656;BME280;41530;52.382;5.270;2023-10-13T13:36:18;100308.53;;;20.98;63.18
55656;BME280;41530;52.382;5.270;2023-10-13T13:38:45;100312.88;;;20.99;62.94
55656;BME280;41530;52.382;5.270;2023-10-13T13:41:12;100304.03;;;20.99;62.95
55656;BME280;41530;52.382;5.270;2023-10-13T13:43:43;100308.53;;;20.98;62.95
55656;BME280;41530;52.382;5.270;2023-10-13T13:46:16;100276.47;;;20.98;63.26
55656;BME280;41530;52.382;5.270;2023-10-13T13:48:43;100281.81;;;20.98;62.93
55656;BME280;41530;52.382;5.270;2023-10-13T13:51:13;100275.16;;;20.94;63.04